sensor_id;sensor_type;location;lat;lon;timestamp;P1;durP1;ratioP1;P2;durP2;ratioP2
76852;SDS011;65825;52.232;10.566;2023-04-01T00:02:02;3.30;;;1.30;;
76852;SDS011;65825;52.232;10.566;2023-04-01T00:04:27;4.30;;;1.30;;
76852;SDS011;65825;52.232;10.566;2023-04-01T00:06:53;4.93;;;1.60;;
76852;SDS011;65825;52.232;10.566;2023-04-01T00:09:18;2.53;;;1.20;;
76852;SDS011;65825;52.232;10.566;2023-04-01T00:11:43;2.60;;;1.30;;
76852;SDS011;65825;52.232;10.566;2023-04-01T00:16:35;3.22;;;1.40;;
76852;SDS011;65825;52.232;10.566;2023-04-01T00:19:01;4.65;;;1.30;;
76852;SDS011;65825;52.232;10.566;2023-04-01T00:21:26;4.15;;;1.40;;
76852;SDS011;65825;52.232;10.566;2023-04-01T00:23:51;6.10;;;1.70;;
76852;SDS011;65825;52.232;10.566;2023-04-01T00:26:17;4.82;;;1.75;;
76852;SDS011;65825;52.232;10.566;2023-04-01T00:28:45;3.35;;;1.38;;
76852;SDS011;65825;52.232;10.566;2023-04-01T00:31:11;9.63;;;1.67;;
76852;SDS011;65825;52.232;10.566;2023-04-01T00:33:37;3.22;;;1.27;;
76852;SDS011;65825;52.232;10.566;2023-04-01T00:36:13;5.65;;;1.65;;
76852;SDS011;65825;52.232;10.566;2023-04-01T00:38:40;4.80;;;1.20;;
76852;SDS011;65825;52.232;10.566;2023-04-01T00:41:07;3.70;;;1.40;;
76852;SDS011;65825;52.232;10.566;2023-04-01T00:43:33;4.07;;;1.40;;
76852;SDS011;65825;52.232;10.566;2023-04-01T00:45:59;6.72;;;1.30;;
76852;SDS011;65825;52.232;10.566;2023-04-01T00:48:30;3.67;;;1.17;;
76852;SDS011;65825;52.232;10.566;2023-04-01T00:51:09;3.13;;;1.25;;
76852;SDS011;65825;52.232;10.566;2023-04-01T00:53:43;4.57;;;1.27;;
76852;SDS011;65825;52.232;10.566;2023-04-01T00:56:13;4.38;;;1.40;;
76852;SDS011;65825;52.232;10.566;2023-04-01T00:58:43;3.78;;;1.10;;
76852;SDS011;65825;52.232;10.566;2023-04-01T01:01:13;4.10;;;1.20;;
76852;SDS011;65825;52.232;10.566;2023-04-01T01:03:38;2.90;;;1.30;;
76852;SDS011;65825;52.232;10.566;2023-04-01T01:06:08;3.75;;;1.25;;
76852;SDS011;65825;52.232;10.566;2023-04-01T01:11:47;4.32;;;1.40;;
76852;SDS011;65825;52.232;10.566;2023-04-01T01:25:15;1.85;;;1.10;;
76852;SDS011;65825;52.232;10.566;2023-04-01T01:27:54;4.13;;;1.40;;
76852;SDS011;65825;52.232;10.566;2023-04-01T01:30:43;3.85;;;1.20;;
76852;SDS011;65825;52.232;10.566;2023-04-01T01:36:04;4.03;;;1.20;;
76852;SDS011;65825;52.232;10.566;2023-04-01T01:38:34;3.17;;;1.25;;
76852;SDS011;65825;52.232;10.566;2023-04-01T01:41:01;3.42;;;1.10;;
76852;SDS011;65825;52.232;10.566;2023-04-01T01:43:33;3.30;;;1.10;;
76852;SDS011;65825;52.232;10.566;2023-04-01T01:46:04;6.70;;;1.70;;
76852;SDS011;65825;52.232;10.566;2023-04-01T01:48:33;4.00;;;1.35;;
76852;SDS011;65825;52.232;10.566;2023-04-01T01:51:00;3.50;;;1.00;;
76852;SDS011;65825;52.232;10.566;2023-04-01T01:53:27;4.47;;;1.20;;
76852;SDS011;65825;52.232;10.566;2023-04-01T01:55:52;1.80;;;1.20;;
76852;SDS011;65825;52.232;10.566;2023-04-01T01:58:32;2.88;;;1.23;;
76852;SDS011;65825;52.232;10.566;2023-04-01T02:01:05;3.97;;;1.23;;
76852;SDS011;65825;52.232;10.566;2023-04-01T02:03:34;3.72;;;1.17;;
76852;SDS011;65825;52.232;10.566;2023-04-01T02:06:03;4.22;;;1.40;;
76852;SDS011;65825;52.232;10.566;2023-04-01T02:08:34;2.50;;;1.20;;
76852;SDS011;65825;52.232;10.566;2023-04-01T02:11:07;6.07;;;1.30;;
76852;SDS011;65825;52.232;10.566;2023-04-01T02:16:33;2.83;;;1.20;;
76852;SDS011;65825;52.232;10.566;2023-04-01T02:19:03;2.40;;;0.98;;
76852;SDS011;65825;52.232;10.566;2023-04-01T02:21:33;4.28;;;1.20;;
76852;SDS011;65825;52.232;10.566;2023-04-01T02:24:02;2.75;;;1.23;;
76852;SDS011;65825;52.232;10.566;2023-04-01T02:26:32;2.92;;;1.10;;
76852;SDS011;65825;52.232;10.566;2023-04-01T02:28:57;2.78;;;1.08;;
76852;SDS011;65825;52.232;10.566;2023-04-01T02:31:25;3.65;;;1.20;;
76852;SDS011;65825;52.232;10.566;2023-04-01T02:33:52;4.43;;;1.35;;
76852;SDS011;65825;52.232;10.566;2023-04-01T02:36:19;3.95;;;1.20;;
76852;SDS011;65825;52.232;10.566;2023-04-01T02:38:44;1.70;;;1.10;;
76852;SDS011;65825;52.232;10.566;2023-04-01T02:41:11;3.60;;;1.10;;
76852;SDS011;65825;52.232;10.566;2023-04-01T02:43:36;2.72;;;1.30;;
76852;SDS011;65825;52.232;10.566;2023-04-01T02:46:02;2.53;;;1.13;;
76852;SDS011;65825;52.232;10.566;2023-04-01T02:48:28;2.88;;;1.10;;
76852;SDS011;65825;52.232;10.566;2023-04-01T02:50:54;4.57;;;1.23;;
76852;SDS011;65825;52.232;10.566;2023-04-01T02:53:19;4.28;;;1.30;;
76852;SDS011;65825;52.232;10.566;2023-04-01T02:55:45;4.38;;;1.20;;
76852;SDS011;65825;52.232;10.566;2023-04-01T02:58:11;6.07;;;1.42;;
76852;SDS011;65825;52.232;10.566;2023-04-01T03:00:36;2.80;;;1.30;;
76852;SDS011;65825;52.232;10.566;2023-04-01T03:03:02;3.75;;;1.48;;
76852;SDS011;65825;52.232;10.566;2023-04-01T03:05:27;3.50;;;1.40;;
76852;SDS011;65825;52.232;10.566;2023-04-01T03:07:53;4.00;;;1.30;;
76852;SDS011;65825;52.232;10.566;2023-04-01T03:10:18;2.77;;;1.20;;
76852;SDS011;65825;52.232;10.566;2023-04-01T03:12:43;3.92;;;1.30;;
76852;SDS011;65825;52.232;10.566;2023-04-01T03:15:10;4.85;;;1.27;;
76852;SDS011;65825;52.232;10.566;2023-04-01T03:17:37;3.13;;;1.50;;
76852;SDS011;65825;52.232;10.566;2023-04-01T03:20:03;2.25;;;1.10;;
76852;SDS011;65825;52.232;10.566;2023-04-01T03:22:29;5.00;;;1.50;;
76852;SDS011;65825;52.232;10.566;2023-04-01T03:24:55;3.88;;;1.20;;
76852;SDS011;65825;52.232;10.566;2023-04-01T03:27:20;2.63;;;1.30;;
76852;SDS011;65825;52.232;10.566;2023-04-01T03:29:45;1.67;;;1.07;;
76852;SDS011;65825;52.232;10.566;2023-04-01T03:32:11;2.73;;;1.20;;
76852;SDS011;65825;52.232;10.566;2023-04-01T03:34:36;8.07;;;1.40;;
76852;SDS011;65825;52.232;10.566;2023-04-01T03:37:01;2.83;;;1.33;;
76852;SDS011;65825;52.232;10.566;2023-04-01T03:39:26;2.47;;;1.17;;
76852;SDS011;65825;52.232;10.566;2023-04-01T03:41:52;3.40;;;1.30;;
76852;SDS011;65825;52.232;10.566;2023-04-01T03:44:17;2.80;;;1.33;;
76852;SDS011;65825;52.232;10.566;2023-04-01T03:46:42;1.70;;;1.20;;
76852;SDS011;65825;52.232;10.566;2023-04-01T03:49:08;2.90;;;1.13;;
76852;SDS011;65825;52.232;10.566;2023-04-01T03:51:37;2.42;;;1.20;;
76852;SDS011;65825;52.232;10.566;2023-04-01T03:54:03;4.70;;;1.45;;
76852;SDS011;65825;52.232;10.566;2023-04-01T03:56:29;2.03;;;1.30;;
76852;SDS011;65825;52.232;10.566;2023-04-01T03:58:54;3.45;;;1.45;;
76852;SDS011;65825;52.232;10.566;2023-04-01T04:01:20;3.93;;;1.10;;
76852;SDS011;65825;52.232;10.566;2023-04-01T04:03:46;2.15;;;1.15;;
76852;SDS011;65825;52.232;10.566;2023-04-01T04:06:14;3.17;;;1.30;;
76852;SDS011;65825;52.232;10.566;2023-04-01T04:08:39;2.90;;;1.30;;
76852;SDS011;65825;52.232;10.566;2023-04-01T04:11:05;3.80;;;1.30;;
76852;SDS011;65825;52.232;10.566;2023-04-01T04:13:30;4.07;;;1.20;;
76852;SDS011;65825;52.232;10.566;2023-04-01T04:15:56;4.23;;;1.30;;
76852;SDS011;65825;52.232;10.566;2023-04-01T04:18:21;4.57;;;1.30;;
76852;SDS011;65825;52.232;10.566;2023-04-01T04:20:46;2.60;;;1.20;;
76852;SDS011;65825;52.232;10.566;2023-04-01T04:23:15;1.60;;;1.10;;
76852;SDS011;65825;52.232;10.566;2023-04-01T04:25:40;1.52;;;1.08;;
76852;SDS011;65825;52.232;10.566;2023-04-01T04:28:06;3.97;;;1.50;;
76852;SDS011;65825;52.232;10.566;2023-04-01T04:30:31;4.10;;;1.63;;
76852;SDS011;65825;52.232;10.566;2023-04-01T04:32:56;3.87;;;1.33;;
76852;SDS011;65825;52.232;10.566;2023-04-01T04:35:21;1.87;;;1.20;;
76852;SDS011;65825;52.232;10.566;2023-04-01T04:37:46;5.43;;;1.30;;
76852;SDS011;65825;52.232;10.566;2023-04-01T04:40:12;6.07;;;1.50;;
76852;SDS011;65825;52.232;10.566;2023-04-01T04:42:37;2.95;;;1.40;;
76852;SDS011;65825;52.232;10.566;2023-04-01T04:45:02;4.97;;;1.40;;
76852;SDS011;65825;52.232;10.566;2023-04-01T04:47:28;2.65;;;1.27;;
76852;SDS011;65825;52.232;10.566;2023-04-01T04:49:53;2.75;;;1.45;;
76852;SDS011;65825;52.232;10.566;2023-04-01T04:52:19;3.50;;;1.40;;
76852;SDS011;65825;52.232;10.566;2023-04-01T04:54:44;3.90;;;1.63;;
76852;SDS011;65825;52.232;10.566;2023-04-01T04:57:10;4.55;;;1.45;;
76852;SDS011;65825;52.232;10.566;2023-04-01T04:59:35;3.53;;;1.33;;
76852;SDS011;65825;52.232;10.566;2023-04-01T05:02:01;1.67;;;1.10;;
76852;SDS011;65825;52.232;10.566;2023-04-01T05:04:26;4.43;;;1.40;;
76852;SDS011;65825;52.232;10.566;2023-04-01T05:06:52;5.80;;;1.55;;
76852;SDS011;65825;52.232;10.566;2023-04-01T05:09:17;5.60;;;1.50;;
76852;SDS011;65825;52.232;10.566;2023-04-01T05:11:43;3.92;;;1.35;;
76852;SDS011;65825;52.232;10.566;2023-04-01T05:14:14;1.97;;;1.23;;
76852;SDS011;65825;52.232;10.566;2023-04-01T05:16:40;5.13;;;1.40;;
76852;SDS011;65825;52.232;10.566;2023-04-01T05:19:06;3.40;;;1.37;;
76852;SDS011;65825;52.232;10.566;2023-04-01T05:21:31;2.07;;;1.10;;
76852;SDS011;65825;52.232;10.566;2023-04-01T05:23:56;3.58;;;1.55;;
76852;SDS011;65825;52.232;10.566;2023-04-01T05:26:22;2.50;;;1.43;;
76852;SDS011;65825;52.232;10.566;2023-04-01T05:28:47;4.77;;;1.53;;
76852;SDS011;65825;52.232;10.566;2023-04-01T05:31:12;4.67;;;1.67;;
76852;SDS011;65825;52.232;10.566;2023-04-01T05:33:37;5.80;;;1.40;;
76852;SDS011;65825;52.232;10.566;2023-04-01T05:36:12;4.18;;;1.42;;
76852;SDS011;65825;52.232;10.566;2023-04-01T05:38:39;5.15;;;1.70;;
76852;SDS011;65825;52.232;10.566;2023-04-01T05:41:04;3.40;;;1.30;;
76852;SDS011;65825;52.232;10.566;2023-04-01T05:43:30;4.07;;;1.52;;
76852;SDS011;65825;52.232;10.566;2023-04-01T05:45:55;2.13;;;1.27;;
76852;SDS011;65825;52.232;10.566;2023-04-01T05:50:47;3.00;;;1.40;;
76852;SDS011;65825;52.232;10.566;2023-04-01T05:53:12;2.10;;;1.20;;
76852;SDS011;65825;52.232;10.566;2023-04-01T05:55:37;3.45;;;1.38;;
76852;SDS011;65825;52.232;10.566;2023-04-01T05:58:02;2.73;;;1.40;;
76852;SDS011;65825;52.232;10.566;2023-04-01T06:00:28;2.45;;;1.27;;
76852;SDS011;65825;52.232;10.566;2023-04-01T06:02:53;2.65;;;1.30;;
76852;SDS011;65825;52.232;10.566;2023-04-01T06:07:45;3.40;;;1.60;;
76852;SDS011;65825;52.232;10.566;2023-04-01T06:10:15;3.33;;;1.40;;
76852;SDS011;65825;52.232;10.566;2023-04-01T06:15:42;2.88;;;1.30;;
76852;SDS011;65825;52.232;10.566;2023-04-01T06:21:32;4.45;;;1.40;;
76852;SDS011;65825;52.232;10.566;2023-04-01T06:26:56;1.65;;;1.20;;
76852;SDS011;65825;52.232;10.566;2023-04-01T06:48:30;3.75;;;1.20;;
76852;SDS011;65825;52.232;10.566;2023-04-01T06:51:13;3.10;;;1.00;;
76852;SDS011;65825;52.232;10.566;2023-04-01T06:56:15;1.92;;;1.00;;
76852;SDS011;65825;52.232;10.566;2023-04-01T06:58:47;3.45;;;1.20;;
76852;SDS011;65825;52.232;10.566;2023-04-01T07:01:18;2.10;;;1.08;;
76852;SDS011;65825;52.232;10.566;2023-04-01T07:03:49;3.85;;;1.08;;
76852;SDS011;65825;52.232;10.566;2023-04-01T07:06:30;2.13;;;1.10;;
76852;SDS011;65825;52.232;10.566;2023-04-01T07:09:00;1.95;;;1.15;;
76852;SDS011;65825;52.232;10.566;2023-04-01T07:11:34;3.65;;;1.20;;
76852;SDS011;65825;52.232;10.566;2023-04-01T07:14:03;3.13;;;1.10;;
76852;SDS011;65825;52.232;10.566;2023-04-01T07:16:37;1.27;;;1.00;;
76852;SDS011;65825;52.232;10.566;2023-04-01T07:19:08;2.28;;;1.00;;
76852;SDS011;65825;52.232;10.566;2023-04-01T07:24:13;0.73;;;0.57;;
76852;SDS011;65825;52.232;10.566;2023-04-01T07:26:44;2.10;;;1.08;;
76852;SDS011;65825;52.232;10.566;2023-04-01T07:29:10;1.70;;;1.00;;
76852;SDS011;65825;52.232;10.566;2023-04-01T07:31:54;2.28;;;1.00;;
76852;SDS011;65825;52.232;10.566;2023-04-01T07:37:11;1.10;;;0.80;;
76852;SDS011;65825;52.232;10.566;2023-04-01T07:39:43;1.75;;;0.90;;
76852;SDS011;65825;52.232;10.566;2023-04-01T07:48:35;1.15;;;0.82;;
76852;SDS011;65825;52.232;10.566;2023-04-01T07:53:45;2.83;;;1.50;;
76852;SDS011;65825;52.232;10.566;2023-04-01T07:59:02;1.98;;;0.65;;
76852;SDS011;65825;52.232;10.566;2023-04-01T08:01:33;1.33;;;1.00;;
76852;SDS011;65825;52.232;10.566;2023-04-01T08:04:57;2.08;;;0.88;;
76852;SDS011;65825;52.232;10.566;2023-04-01T08:07:22;1.55;;;1.00;;
76852;SDS011;65825;52.232;10.566;2023-04-01T08:13:00;1.58;;;1.00;;
76852;SDS011;65825;52.232;10.566;2023-04-01T08:15:48;2.85;;;1.05;;
76852;SDS011;65825;52.232;10.566;2023-04-01T08:21:20;1.55;;;0.90;;
76852;SDS011;65825;52.232;10.566;2023-04-01T08:23:48;1.38;;;0.73;;
76852;SDS011;65825;52.232;10.566;2023-04-01T08:26:24;2.47;;;0.98;;
76852;SDS011;65825;52.232;10.566;2023-04-01T08:28:55;1.15;;;0.60;;
76852;SDS011;65825;52.232;10.566;2023-04-01T08:31:37;1.92;;;0.70;;
76852;SDS011;65825;52.232;10.566;2023-04-01T08:34:10;2.22;;;0.88;;
76852;SDS011;65825;52.232;10.566;2023-04-01T08:36:45;1.02;;;0.65;;
76852;SDS011;65825;52.232;10.566;2023-04-01T08:39:16;1.30;;;0.70;;
76852;SDS011;65825;52.232;10.566;2023-04-01T08:42:00;1.15;;;0.65;;
76852;SDS011;65825;52.232;10.566;2023-04-01T08:45:03;2.28;;;0.93;;
76852;SDS011;65825;52.232;10.566;2023-04-01T08:47:54;0.82;;;0.80;;
76852;SDS011;65825;52.232;10.566;2023-04-01T08:55:56;2.15;;;0.68;;
76852;SDS011;65825;52.232;10.566;2023-04-01T08:58:34;1.10;;;0.60;;
76852;SDS011;65825;52.232;10.566;2023-04-01T09:04:08;1.95;;;1.20;;
76852;SDS011;65825;52.232;10.566;2023-04-01T09:15:20;1.33;;;0.88;;
76852;SDS011;65825;52.232;10.566;2023-04-01T09:17:53;2.38;;;0.82;;
76852;SDS011;65825;52.232;10.566;2023-04-01T09:35:20;2.38;;;0.95;;
76852;SDS011;65825;52.232;10.566;2023-04-01T09:43:28;2.78;;;0.90;;
76852;SDS011;65825;52.232;10.566;2023-04-01T09:49:11;0.93;;;0.68;;
76852;SDS011;65825;52.232;10.566;2023-04-01T10:04:11;1.30;;;0.73;;
76852;SDS011;65825;52.232;10.566;2023-04-01T10:09:44;1.27;;;0.43;;
76852;SDS011;65825;52.232;10.566;2023-04-01T10:18:05;1.45;;;0.77;;
76852;SDS011;65825;52.232;10.566;2023-04-01T10:29:20;0.50;;;0.50;;
76852;SDS011;65825;52.232;10.566;2023-04-01T10:43:46;4.22;;;1.50;;
76852;SDS011;65825;52.232;10.566;2023-04-01T10:49:10;1.17;;;0.70;;
76852;SDS011;65825;52.232;10.566;2023-04-01T10:54:40;0.40;;;0.30;;
76852;SDS011;65825;52.232;10.566;2023-04-01T11:08:37;0.68;;;0.57;;
76852;SDS011;65825;52.232;10.566;2023-04-01T11:14:09;0.70;;;0.40;;
76852;SDS011;65825;52.232;10.566;2023-04-01T11:19:30;1.23;;;0.70;;
76852;SDS011;65825;52.232;10.566;2023-04-01T11:22:19;0.85;;;0.60;;
76852;SDS011;65825;52.232;10.566;2023-04-01T11:28:07;1.55;;;0.55;;
76852;SDS011;65825;52.232;10.566;2023-04-01T11:30:42;0.73;;;0.55;;
76852;SDS011;65825;52.232;10.566;2023-04-01T11:33:25;2.10;;;0.75;;
76852;SDS011;65825;52.232;10.566;2023-04-01T11:36:11;0.95;;;0.68;;
76852;SDS011;65825;52.232;10.566;2023-04-01T11:41:56;1.23;;;0.90;;
76852;SDS011;65825;52.232;10.566;2023-04-01T11:44:29;1.90;;;0.60;;
76852;SDS011;65825;52.232;10.566;2023-04-01T11:49:59;1.52;;;1.00;;
76852;SDS011;65825;52.232;10.566;2023-04-01T11:53:16;2.17;;;0.88;;
76852;SDS011;65825;52.232;10.566;2023-04-01T12:04:23;0.70;;;0.55;;
76852;SDS011;65825;52.232;10.566;2023-04-01T12:07:04;0.88;;;0.68;;
76852;SDS011;65825;52.232;10.566;2023-04-01T12:10:20;1.27;;;0.70;;
76852;SDS011;65825;52.232;10.566;2023-04-01T12:12:54;2.63;;;0.55;;
76852;SDS011;65825;52.232;10.566;2023-04-01T12:21:15;1.25;;;0.82;;
76852;SDS011;65825;52.232;10.566;2023-04-01T12:35:20;1.08;;;0.93;;
76852;SDS011;65825;52.232;10.566;2023-04-01T12:40:38;2.80;;;0.98;;
76852;SDS011;65825;52.232;10.566;2023-04-01T12:46:23;1.20;;;0.70;;
76852;SDS011;65825;52.232;10.566;2023-04-01T13:13:15;2.60;;;1.00;;
76852;SDS011;65825;52.232;10.566;2023-04-01T13:24:49;2.28;;;0.82;;
76852;SDS011;65825;52.232;10.566;2023-04-01T13:27:43;1.90;;;0.90;;
76852;SDS011;65825;52.232;10.566;2023-04-01T13:33:20;2.90;;;1.00;;
76852;SDS011;65825;52.232;10.566;2023-04-01T13:44:55;1.95;;;1.00;;
76852;SDS011;65825;52.232;10.566;2023-04-01T13:47:48;2.40;;;1.40;;
76852;SDS011;65825;52.232;10.566;2023-04-01T14:01:47;2.10;;;1.20;;
76852;SDS011;65825;52.232;10.566;2023-04-01T14:18:22;1.95;;;1.30;;
76852;SDS011;65825;52.232;10.566;2023-04-01T14:29:34;2.00;;;1.05;;
76852;SDS011;65825;52.232;10.566;2023-04-01T14:32:34;1.98;;;1.30;;
76852;SDS011;65825;52.232;10.566;2023-04-01T14:35:21;2.28;;;1.20;;
76852;SDS011;65825;52.232;10.566;2023-04-01T14:49:22;2.72;;;1.20;;
76852;SDS011;65825;52.232;10.566;2023-04-01T14:51:55;1.90;;;1.30;;
76852;SDS011;65825;52.232;10.566;2023-04-01T14:54:35;2.25;;;1.20;;
76852;SDS011;65825;52.232;10.566;2023-04-01T14:57:05;2.55;;;1.63;;
76852;SDS011;65825;52.232;10.566;2023-04-01T14:59:49;2.40;;;1.60;;
76852;SDS011;65825;52.232;10.566;2023-04-01T15:04:58;2.20;;;1.55;;
76852;SDS011;65825;52.232;10.566;2023-04-01T15:13:12;3.15;;;1.60;;
76852;SDS011;65825;52.232;10.566;2023-04-01T15:16:18;2.30;;;1.60;;
76852;SDS011;65825;52.232;10.566;2023-04-01T15:19:00;2.58;;;1.58;;
76852;SDS011;65825;52.232;10.566;2023-04-01T15:26:48;2.33;;;1.63;;
76852;SDS011;65825;52.232;10.566;2023-04-01T15:46:12;2.90;;;1.20;;
76852;SDS011;65825;52.232;10.566;2023-04-01T15:49:03;1.67;;;1.27;;
76852;SDS011;65825;52.232;10.566;2023-04-01T15:51:38;2.65;;;1.40;;
76852;SDS011;65825;52.232;10.566;2023-04-01T16:05:53;1.60;;;1.23;;
76852;SDS011;65825;52.232;10.566;2023-04-01T16:08:48;2.17;;;1.45;;
76852;SDS011;65825;52.232;10.566;2023-04-01T16:11:47;1.50;;;1.08;;
76852;SDS011;65825;52.232;10.566;2023-04-01T16:33:45;4.03;;;1.80;;
76852;SDS011;65825;52.232;10.566;2023-04-01T16:39:18;3.60;;;1.40;;
76852;SDS011;65825;52.232;10.566;2023-04-01T16:41:49;2.08;;;1.30;;
76852;SDS011;65825;52.232;10.566;2023-04-01T16:44:22;2.22;;;1.40;;
76852;SDS011;65825;52.232;10.566;2023-04-01T16:46:58;2.65;;;1.60;;
76852;SDS011;65825;52.232;10.566;2023-04-01T16:49:37;1.98;;;1.38;;
76852;SDS011;65825;52.232;10.566;2023-04-01T16:57:20;2.05;;;1.35;;
76852;SDS011;65825;52.232;10.566;2023-04-01T17:02:37;2.08;;;1.48;;
76852;SDS011;65825;52.232;10.566;2023-04-01T17:05:11;2.53;;;1.48;;
76852;SDS011;65825;52.232;10.566;2023-04-01T17:32:12;3.45;;;1.98;;
76852;SDS011;65825;52.232;10.566;2023-04-01T17:43:22;3.40;;;2.10;;
76852;SDS011;65825;52.232;10.566;2023-04-01T17:45:59;4.88;;;3.90;;
76852;SDS011;65825;52.232;10.566;2023-04-01T17:51:23;3.60;;;1.95;;
76852;SDS011;65825;52.232;10.566;2023-04-01T17:54:17;3.15;;;1.60;;
76852;SDS011;65825;52.232;10.566;2023-04-01T17:59:37;4.75;;;1.60;;
76852;SDS011;65825;52.232;10.566;2023-04-01T18:02:15;2.80;;;1.58;;
76852;SDS011;65825;52.232;10.566;2023-04-01T18:10:23;2.13;;;1.50;;
76852;SDS011;65825;52.232;10.566;2023-04-01T18:18:26;2.22;;;1.33;;
76852;SDS011;65825;52.232;10.566;2023-04-01T18:21:08;2.80;;;1.60;;
76852;SDS011;65825;52.232;10.566;2023-04-01T18:24:10;3.05;;;1.70;;
76852;SDS011;65825;52.232;10.566;2023-04-01T18:27:03;2.65;;;1.42;;
76852;SDS011;65825;52.232;10.566;2023-04-01T18:29:36;3.00;;;1.70;;
76852;SDS011;65825;52.232;10.566;2023-04-01T18:32:10;3.00;;;1.67;;
76852;SDS011;65825;52.232;10.566;2023-04-01T18:40:01;3.42;;;1.75;;
76852;SDS011;65825;52.232;10.566;2023-04-01T18:42:50;1.92;;;1.30;;
76852;SDS011;65825;52.232;10.566;2023-04-01T18:47:57;1.85;;;1.30;;
76852;SDS011;65825;52.232;10.566;2023-04-01T18:53:10;2.72;;;1.30;;
76852;SDS011;65825;52.232;10.566;2023-04-01T18:55:55;1.98;;;1.38;;
76852;SDS011;65825;52.232;10.566;2023-04-01T18:58:25;1.63;;;1.20;;
76852;SDS011;65825;52.232;10.566;2023-04-01T19:01:02;2.33;;;1.50;;
76852;SDS011;65825;52.232;10.566;2023-04-01T19:06:08;2.58;;;1.33;;
76852;SDS011;65825;52.232;10.566;2023-04-01T19:08:42;2.45;;;1.50;;
76852;SDS011;65825;52.232;10.566;2023-04-01T19:16:46;1.90;;;1.30;;
76852;SDS011;65825;52.232;10.566;2023-04-01T19:27:51;3.30;;;1.75;;
76852;SDS011;65825;52.232;10.566;2023-04-01T19:33:15;3.30;;;1.80;;
76852;SDS011;65825;52.232;10.566;2023-04-01T19:38:53;2.38;;;1.60;;
76852;SDS011;65825;52.232;10.566;2023-04-01T19:46:45;3.50;;;2.13;;
76852;SDS011;65825;52.232;10.566;2023-04-01T19:55:13;5.93;;;2.47;;
76852;SDS011;65825;52.232;10.566;2023-04-01T19:58:02;5.45;;;2.30;;
76852;SDS011;65825;52.232;10.566;2023-04-01T20:16:21;5.45;;;2.97;;
76852;SDS011;65825;52.232;10.566;2023-04-01T20:19:00;5.32;;;3.25;;
76852;SDS011;65825;52.232;10.566;2023-04-01T20:26:40;4.38;;;2.72;;
76852;SDS011;65825;52.232;10.566;2023-04-01T20:34:55;6.85;;;4.05;;
76852;SDS011;65825;52.232;10.566;2023-04-01T20:40:52;6.40;;;3.50;;
76852;SDS011;65825;52.232;10.566;2023-04-01T20:43:45;6.63;;;3.47;;
76852;SDS011;65825;52.232;10.566;2023-04-01T20:51:30;5.85;;;2.50;;
76852;SDS011;65825;52.232;10.566;2023-04-01T20:57:41;5.53;;;2.90;;
76852;SDS011;65825;52.232;10.566;2023-04-01T21:03:26;5.55;;;2.83;;
76852;SDS011;65825;52.232;10.566;2023-04-01T21:05:57;5.60;;;2.70;;
76852;SDS011;65825;52.232;10.566;2023-04-01T21:16:41;4.63;;;2.47;;
76852;SDS011;65825;52.232;10.566;2023-04-01T21:19:18;3.65;;;2.20;;
76852;SDS011;65825;52.232;10.566;2023-04-01T21:22:08;5.07;;;2.60;;
76852;SDS011;65825;52.232;10.566;2023-04-01T21:30:03;4.93;;;2.78;;
76852;SDS011;65825;52.232;10.566;2023-04-01T21:35:23;4.57;;;2.70;;
76852;SDS011;65825;52.232;10.566;2023-04-01T21:46:40;4.15;;;2.72;;
76852;SDS011;65825;52.232;10.566;2023-04-01T21:52:46;6.65;;;3.88;;
76852;SDS011;65825;52.232;10.566;2023-04-01T22:01:46;6.85;;;3.10;;
76852;SDS011;65825;52.232;10.566;2023-04-01T22:04:43;6.60;;;3.20;;
76852;SDS011;65825;52.232;10.566;2023-04-01T22:07:30;7.38;;;3.17;;
76852;SDS011;65825;52.232;10.566;2023-04-01T22:13:11;6.05;;;3.33;;
76852;SDS011;65825;52.232;10.566;2023-04-01T22:18:13;8.32;;;4.00;;
76852;SDS011;65825;52.232;10.566;2023-04-01T22:26:37;4.85;;;3.08;;
76852;SDS011;65825;52.232;10.566;2023-04-01T22:32:06;7.43;;;3.53;;
76852;SDS011;65825;52.232;10.566;2023-04-01T22:34:45;5.28;;;3.10;;
76852;SDS011;65825;52.232;10.566;2023-04-01T22:37:23;5.80;;;3.33;;
76852;SDS011;65825;52.232;10.566;2023-04-01T22:45:38;6.20;;;3.13;;
76852;SDS011;65825;52.232;10.566;2023-04-01T22:50:55;8.95;;;3.78;;
76852;SDS011;65825;52.232;10.566;2023-04-01T22:53:32;6.05;;;3.42;;
76852;SDS011;65825;52.232;10.566;2023-04-01T22:56:15;7.75;;;4.15;;
76852;SDS011;65825;52.232;10.566;2023-04-01T22:58:47;10.38;;;3.95;;
76852;SDS011;65825;52.232;10.566;2023-04-01T23:01:24;5.55;;;3.33;;
76852;SDS011;65825;52.232;10.566;2023-04-01T23:03:55;7.25;;;3.88;;
76852;SDS011;65825;52.232;10.566;2023-04-01T23:06:27;8.15;;;3.75;;
76852;SDS011;65825;52.232;10.566;2023-04-01T23:14:43;7.85;;;3.83;;
76852;SDS011;65825;52.232;10.566;2023-04-01T23:17:16;13.18;;;3.60;;
76852;SDS011;65825;52.232;10.566;2023-04-01T23:33:50;6.83;;;3.70;;
76852;SDS011;65825;52.232;10.566;2023-04-01T23:35:56;7.63;;;3.60;;
76852;SDS011;65825;52.232;10.566;2023-04-01T23:38:30;7.90;;;3.25;;
76852;SDS011;65825;52.232;10.566;2023-04-01T23:40:58;9.05;;;3.33;;
76852;SDS011;65825;52.232;10.566;2023-04-01T23:43:25;6.13;;;3.00;;
76852;SDS011;65825;52.232;10.566;2023-04-01T23:45:56;6.47;;;3.17;;
76852;SDS011;65825;52.232;10.566;2023-04-01T23:48:25;7.93;;;3.20;;
76852;SDS011;65825;52.232;10.566;2023-04-01T23:51:22;8.02;;;3.13;;
76852;SDS011;65825;52.232;10.566;2023-04-01T23:53:59;5.68;;;3.10;;
76852;SDS011;65825;52.232;10.566;2023-04-01T23:56:34;9.07;;;3.20;;
76852;SDS011;65825;52.232;10.566;2023-04-01T23:59:03;5.47;;;2.85;;
